KOLE/OLE METAR and TAF weather

Enter ICAO airport designator
Station Type Date Time Source
KOLE METAR 2019/04/25 11:55 UTC NOAA

KOLE 251155Z AUTO 19005KT 10SM CLR 03/03 A2992 RMK AO2


Station Type Date Time Source
KOLE Decoded METAR 2019/04/25 11:55 UTC NOAA

Olean Municipal, NY, United States (KOLE) 42-14N 078-22W
Apr 25, 2019 - 07:55 AM EDT / 2019.04.25 1155 UTC
Wind: from the S (190 degrees) at 6 MPH (5 KT):0
Visibility: 10 mile(s):0
Sky conditions: clear
Temperature: 37 F (3 C)
Dew Point: 37 F (3 C)
Relative Humidity: 100%
Pressure (altimeter): 29.92 in. Hg (1013 hPa)
ob: KOLE 251155Z AUTO 19005KT 10SM CLR 03/03 A2992 RMK AO2
cycle: 12

Station Type Date Time Source
KOLE TAF UTC NOAA

Error!

Example: see airport list